Aviation Digital Data Service (ADDS)

Output produced by METARs form (2124 UTC 03 September 2015)
found at http://aviationweather.gov/adds/metars/
 
KPNE 031745Z 0318/0418 36007KT P6SM FEW060 SCT250 
     FM040000 16006KT P6SM SCT060 
     FM040200 VRB03KT P6SM SCT050 
     FM041200 04007KT P6SM SCT035 BKN150 
     FM041500 07011KT P6SM SCT025 BKN035